sensor_id;sensor_type;location;lat;lon;timestamp;temperature;humidity
30825;DHT22;17550;45.486;12.222;2023-04-08T00:01:06;9.30;99.90
30825;DHT22;17550;45.486;12.222;2023-04-08T00:03:31;9.30;99.90
30825;DHT22;17550;45.486;12.222;2023-04-08T00:05:57;9.10;99.90
30825;DHT22;17550;45.486;12.222;2023-04-08T00:08:25;9.10;99.90
30825;DHT22;17550;45.486;12.222;2023-04-08T00:10:50;9.00;99.90
30825;DHT22;17550;45.486;12.222;2023-04-08T00:13:16;9.00;99.90
30825;DHT22;17550;45.486;12.222;2023-04-08T00:15:42;9.00;99.90
30825;DHT22;17550;45.486;12.222;2023-04-08T00:18:07;9.00;99.90
30825;DHT22;17550;45.486;12.222;2023-04-08T00:20:33;9.00;99.90
30825;DHT22;17550;45.486;12.222;2023-04-08T00:23:00;9.00;99.90
30825;DHT22;17550;45.486;12.222;2023-04-08T00:25:26;9.00;99.90
30825;DHT22;17550;45.486;12.222;2023-04-08T00:27:51;9.10;99.90
30825;DHT22;17550;45.486;12.222;2023-04-08T00:30:17;9.10;99.90
30825;DHT22;17550;45.486;12.222;2023-04-08T00:32:43;9.20;99.90
30825;DHT22;17550;45.486;12.222;2023-04-08T00:35:09;9.10;99.90
30825;DHT22;17550;45.486;12.222;2023-04-08T00:37:37;9.10;99.90
30825;DHT22;17550;45.486;12.222;2023-04-08T00:40:03;9.10;99.90
30825;DHT22;17550;45.486;12.222;2023-04-08T00:42:30;9.00;99.90
30825;DHT22;17550;45.486;12.222;2023-04-08T00:44:55;9.00;99.90
30825;DHT22;17550;45.486;12.222;2023-04-08T00:47:21;9.00;99.90
30825;DHT22;17550;45.486;12.222;2023-04-08T00:49:48;8.90;99.90
30825;DHT22;17550;45.486;12.222;2023-04-08T00:52:13;8.80;99.90
30825;DHT22;17550;45.486;12.222;2023-04-08T00:54:41;8.80;99.90
30825;DHT22;17550;45.486;12.222;2023-04-08T00:57:07;8.70;99.90
30825;DHT22;17550;45.486;12.222;2023-04-08T00:59:33;8.60;99.90
30825;DHT22;17550;45.486;12.222;2023-04-08T01:02:25;8.60;99.90
30825;DHT22;17550;45.486;12.222;2023-04-08T01:07:36;8.70;99.90
30825;DHT22;17550;45.486;12.222;2023-04-08T01:10:15;8.70;99.90
30825;DHT22;17550;45.486;12.222;2023-04-08T01:12:49;8.80;99.90
30825;DHT22;17550;45.486;12.222;2023-04-08T01:15:16;8.80;99.90
30825;DHT22;17550;45.486;12.222;2023-04-08T01:17:43;8.90;99.90
30825;DHT22;17550;45.486;12.222;2023-04-08T01:20:12;8.90;99.90
30825;DHT22;17550;45.486;12.222;2023-04-08T01:25:37;9.00;99.90
30825;DHT22;17550;45.486;12.222;2023-04-08T01:28:09;9.00;99.90
30825;DHT22;17550;45.486;12.222;2023-04-08T01:30:38;8.90;99.90
30825;DHT22;17550;45.486;12.222;2023-04-08T01:33:05;8.90;99.90
30825;DHT22;17550;45.486;12.222;2023-04-08T01:35:31;8.90;99.90
30825;DHT22;17550;45.486;12.222;2023-04-08T01:37:58;8.90;99.90
30825;DHT22;17550;45.486;12.222;2023-04-08T01:40:24;8.90;99.90
30825;DHT22;17550;45.486;12.222;2023-04-08T01:42:54;8.90;99.90
30825;DHT22;17550;45.486;12.222;2023-04-08T01:45:21;8.80;99.90
30825;DHT22;17550;45.486;12.222;2023-04-08T01:47:48;8.80;99.90
30825;DHT22;17550;45.486;12.222;2023-04-08T01:50:15;8.80;99.90
30825;DHT22;17550;45.486;12.222;2023-04-08T01:52:48;8.80;99.90
30825;DHT22;17550;45.486;12.222;2023-04-08T01:55:18;8.80;99.90
30825;DHT22;17550;45.486;12.222;2023-04-08T01:57:47;8.80;99.90
30825;DHT22;17550;45.486;12.222;2023-04-08T02:00:16;8.80;99.90
30825;DHT22;17550;45.486;12.222;2023-04-08T02:02:43;8.80;99.90
30825;DHT22;17550;45.486;12.222;2023-04-08T02:05:12;8.80;99.90
30825;DHT22;17550;45.486;12.222;2023-04-08T02:07:38;8.70;99.90
30825;DHT22;17550;45.486;12.222;2023-04-08T02:10:04;8.70;99.90
30825;DHT22;17550;45.486;12.222;2023-04-08T02:12:30;8.70;99.90
30825;DHT22;17550;45.486;12.222;2023-04-08T02:14:57;8.70;99.90
30825;DHT22;17550;45.486;12.222;2023-04-08T02:20:05;8.70;99.90
30825;DHT22;17550;45.486;12.222;2023-04-08T02:25:14;8.60;99.90
30825;DHT22;17550;45.486;12.222;2023-04-08T02:27:41;8.60;99.90
30825;DHT22;17550;45.486;12.222;2023-04-08T02:30:09;8.70;99.90
30825;DHT22;17550;45.486;12.222;2023-04-08T02:32:36;8.70;99.90
30825;DHT22;17550;45.486;12.222;2023-04-08T02:35:03;8.70;99.90
30825;DHT22;17550;45.486;12.222;2023-04-08T02:37:30;8.60;99.90
30825;DHT22;17550;45.486;12.222;2023-04-08T02:39:57;8.40;99.90
30825;DHT22;17550;45.486;12.222;2023-04-08T02:42:22;8.30;99.90
30825;DHT22;17550;45.486;12.222;2023-04-08T02:44:49;8.40;99.90
30825;DHT22;17550;45.486;12.222;2023-04-08T02:47:15;8.40;99.90
30825;DHT22;17550;45.486;12.222;2023-04-08T02:49:41;8.50;99.90
30825;DHT22;17550;45.486;12.222;2023-04-08T02:52:07;8.40;99.90
30825;DHT22;17550;45.486;12.222;2023-04-08T02:54:32;8.50;99.90
30825;DHT22;17550;45.486;12.222;2023-04-08T02:56:58;8.50;99.90
30825;DHT22;17550;45.486;12.222;2023-04-08T02:59:24;8.50;99.90
30825;DHT22;17550;45.486;12.222;2023-04-08T03:01:50;8.50;99.90
30825;DHT22;17550;45.486;12.222;2023-04-08T03:04:15;8.50;99.90
30825;DHT22;17550;45.486;12.222;2023-04-08T03:06:41;8.50;99.90
30825;DHT22;17550;45.486;12.222;2023-04-08T03:09:07;8.40;99.90
30825;DHT22;17550;45.486;12.222;2023-04-08T03:11:33;8.50;99.90
30825;DHT22;17550;45.486;12.222;2023-04-08T03:13:59;8.30;99.90
30825;DHT22;17550;45.486;12.222;2023-04-08T03:16:25;8.30;99.90
30825;DHT22;17550;45.486;12.222;2023-04-08T03:18:51;8.30;99.90
30825;DHT22;17550;45.486;12.222;2023-04-08T03:21:17;8.20;99.90
30825;DHT22;17550;45.486;12.222;2023-04-08T03:23:43;8.10;99.90
30825;DHT22;17550;45.486;12.222;2023-04-08T03:26:09;8.10;99.90
30825;DHT22;17550;45.486;12.222;2023-04-08T03:28:35;8.00;99.90
30825;DHT22;17550;45.486;12.222;2023-04-08T03:31:05;7.90;99.90
30825;DHT22;17550;45.486;12.222;2023-04-08T03:33:31;7.80;99.90
30825;DHT22;17550;45.486;12.222;2023-04-08T03:35:57;7.80;99.90
30825;DHT22;17550;45.486;12.222;2023-04-08T03:38:22;7.80;99.90
30825;DHT22;17550;45.486;12.222;2023-04-08T03:40:48;7.60;99.90
30825;DHT22;17550;45.486;12.222;2023-04-08T03:43:14;7.50;99.90
30825;DHT22;17550;45.486;12.222;2023-04-08T03:45:40;7.50;99.90
30825;DHT22;17550;45.486;12.222;2023-04-08T03:48:06;7.40;99.90
30825;DHT22;17550;45.486;12.222;2023-04-08T03:50:32;7.20;99.90
30825;DHT22;17550;45.486;12.222;2023-04-08T03:52:58;6.90;99.90
30825;DHT22;17550;45.486;12.222;2023-04-08T03:55:23;6.70;99.90
30825;DHT22;17550;45.486;12.222;2023-04-08T03:57:49;6.70;99.90
30825;DHT22;17550;45.486;12.222;2023-04-08T04:00:16;6.80;99.90
30825;DHT22;17550;45.486;12.222;2023-04-08T04:02:41;6.80;99.90
30825;DHT22;17550;45.486;12.222;2023-04-08T04:05:07;6.90;99.90
30825;DHT22;17550;45.486;12.222;2023-04-08T04:07:33;6.90;99.90
30825;DHT22;17550;45.486;12.222;2023-04-08T04:09:59;6.80;99.90
30825;DHT22;17550;45.486;12.222;2023-04-08T04:12:24;6.80;99.90
30825;DHT22;17550;45.486;12.222;2023-04-08T04:14:51;6.80;99.90
30825;DHT22;17550;45.486;12.222;2023-04-08T04:17:16;6.70;99.90
30825;DHT22;17550;45.486;12.222;2023-04-08T04:19:42;6.70;99.90
30825;DHT22;17550;45.486;12.222;2023-04-08T04:22:08;6.70;99.90
30825;DHT22;17550;45.486;12.222;2023-04-08T04:24:34;6.60;99.90
30825;DHT22;17550;45.486;12.222;2023-04-08T04:27:00;6.60;99.90
30825;DHT22;17550;45.486;12.222;2023-04-08T04:29:26;6.70;99.90
30825;DHT22;17550;45.486;12.222;2023-04-08T04:31:51;6.70;99.90
30825;DHT22;17550;45.486;12.222;2023-04-08T04:34:17;6.70;99.90
30825;DHT22;17550;45.486;12.222;2023-04-08T04:36:43;6.80;99.90
30825;DHT22;17550;45.486;12.222;2023-04-08T04:39:08;6.90;99.90
30825;DHT22;17550;45.486;12.222;2023-04-08T04:41:34;6.90;99.90
30825;DHT22;17550;45.486;12.222;2023-04-08T04:44:05;6.90;99.90
30825;DHT22;17550;45.486;12.222;2023-04-08T04:46:31;7.00;99.90
30825;DHT22;17550;45.486;12.222;2023-04-08T04:48:57;7.10;99.90
30825;DHT22;17550;45.486;12.222;2023-04-08T04:51:22;7.10;99.90
30825;DHT22;17550;45.486;12.222;2023-04-08T04:53:48;7.20;99.90
30825;DHT22;17550;45.486;12.222;2023-04-08T04:56:14;7.30;99.90
30825;DHT22;17550;45.486;12.222;2023-04-08T04:58:40;7.50;99.90
30825;DHT22;17550;45.486;12.222;2023-04-08T05:01:06;7.60;99.90
30825;DHT22;17550;45.486;12.222;2023-04-08T05:03:32;7.70;99.90
30825;DHT22;17550;45.486;12.222;2023-04-08T05:05:58;7.80;99.90
30825;DHT22;17550;45.486;12.222;2023-04-08T05:08:24;8.00;99.90
30825;DHT22;17550;45.486;12.222;2023-04-08T05:10:49;8.10;99.90
30825;DHT22;17550;45.486;12.222;2023-04-08T05:13:16;8.30;99.90
30825;DHT22;17550;45.486;12.222;2023-04-08T05:15:42;8.50;99.90
30825;DHT22;17550;45.486;12.222;2023-04-08T05:18:10;8.50;99.90
30825;DHT22;17550;45.486;12.222;2023-04-08T05:20:36;8.60;99.90
30825;DHT22;17550;45.486;12.222;2023-04-08T05:23:02;8.70;99.90
30825;DHT22;17550;45.486;12.222;2023-04-08T05:25:29;8.80;99.90
30825;DHT22;17550;45.486;12.222;2023-04-08T05:27:55;9.00;99.90
30825;DHT22;17550;45.486;12.222;2023-04-08T05:30:21;9.00;99.90
30825;DHT22;17550;45.486;12.222;2023-04-08T05:32:47;9.10;99.90
30825;DHT22;17550;45.486;12.222;2023-04-08T05:35:12;9.10;99.90
30825;DHT22;17550;45.486;12.222;2023-04-08T05:37:38;9.10;99.90
30825;DHT22;17550;45.486;12.222;2023-04-08T05:40:05;9.20;99.90
30825;DHT22;17550;45.486;12.222;2023-04-08T05:42:31;9.20;99.90
30825;DHT22;17550;45.486;12.222;2023-04-08T05:44:57;9.10;99.90
30825;DHT22;17550;45.486;12.222;2023-04-08T05:47:23;9.10;99.90
30825;DHT22;17550;45.486;12.222;2023-04-08T05:49:48;9.10;99.90
30825;DHT22;17550;45.486;12.222;2023-04-08T05:52:14;9.00;99.90
30825;DHT22;17550;45.486;12.222;2023-04-08T05:54:44;9.10;99.90
30825;DHT22;17550;45.486;12.222;2023-04-08T05:57:10;9.10;99.90
30825;DHT22;17550;45.486;12.222;2023-04-08T05:59:36;9.20;99.90
30825;DHT22;17550;45.486;12.222;2023-04-08T06:02:01;9.20;99.90
30825;DHT22;17550;45.486;12.222;2023-04-08T06:04:27;9.30;99.90
30825;DHT22;17550;45.486;12.222;2023-04-08T06:06:53;9.30;99.90
30825;DHT22;17550;45.486;12.222;2023-04-08T06:09:18;9.50;99.90
30825;DHT22;17550;45.486;12.222;2023-04-08T06:11:44;9.60;99.90
30825;DHT22;17550;45.486;12.222;2023-04-08T06:14:11;9.70;99.90
30825;DHT22;17550;45.486;12.222;2023-04-08T06:16:37;9.90;99.90
30825;DHT22;17550;45.486;12.222;2023-04-08T06:19:03;10.00;99.90
30825;DHT22;17550;45.486;12.222;2023-04-08T06:21:28;10.00;99.90
30825;DHT22;17550;45.486;12.222;2023-04-08T06:23:54;10.10;99.90
30825;DHT22;17550;45.486;12.222;2023-04-08T06:26:20;10.10;99.90
30825;DHT22;17550;45.486;12.222;2023-04-08T06:28:46;10.20;99.90
30825;DHT22;17550;45.486;12.222;2023-04-08T06:31:11;10.20;99.90
30825;DHT22;17550;45.486;12.222;2023-04-08T06:33:37;10.20;99.90
30825;DHT22;17550;45.486;12.222;2023-04-08T06:36:04;10.10;99.90
30825;DHT22;17550;45.486;12.222;2023-04-08T06:38:30;10.10;99.90
30825;DHT22;17550;45.486;12.222;2023-04-08T06:41:04;10.20;99.90
30825;DHT22;17550;45.486;12.222;2023-04-08T06:43:30;10.10;99.90
30825;DHT22;17550;45.486;12.222;2023-04-08T06:45:56;10.00;99.90
30825;DHT22;17550;45.486;12.222;2023-04-08T06:48:23;10.10;99.90
30825;DHT22;17550;45.486;12.222;2023-04-08T06:50:57;9.90;99.90
30825;DHT22;17550;45.486;12.222;2023-04-08T06:53:23;9.80;99.90
30825;DHT22;17550;45.486;12.222;2023-04-08T06:55:50;9.90;99.90
30825;DHT22;17550;45.486;12.222;2023-04-08T06:58:16;10.00;99.90
30825;DHT22;17550;45.486;12.222;2023-04-08T07:00:42;10.10;99.90
30825;DHT22;17550;45.486;12.222;2023-04-08T07:03:08;10.30;99.90
30825;DHT22;17550;45.486;12.222;2023-04-08T07:05:37;10.40;99.90
30825;DHT22;17550;45.486;12.222;2023-04-08T07:08:04;10.50;99.90
30825;DHT22;17550;45.486;12.222;2023-04-08T07:10:30;10.70;99.90
30825;DHT22;17550;45.486;12.222;2023-04-08T07:12:55;10.80;99.90
30825;DHT22;17550;45.486;12.222;2023-04-08T07:15:22;10.80;99.90
30825;DHT22;17550;45.486;12.222;2023-04-08T07:17:47;11.00;99.90
30825;DHT22;17550;45.486;12.222;2023-04-08T07:20:13;11.20;99.90
30825;DHT22;17550;45.486;12.222;2023-04-08T07:22:39;11.20;99.90
30825;DHT22;17550;45.486;12.222;2023-04-08T07:25:05;11.20;99.90
30825;DHT22;17550;45.486;12.222;2023-04-08T07:27:33;11.30;99.90
30825;DHT22;17550;45.486;12.222;2023-04-08T07:29:59;11.20;99.90
30825;DHT22;17550;45.486;12.222;2023-04-08T07:32:24;11.10;99.90
30825;DHT22;17550;45.486;12.222;2023-04-08T07:34:50;11.00;99.90
30825;DHT22;17550;45.486;12.222;2023-04-08T07:37:16;11.20;99.90
30825;DHT22;17550;45.486;12.222;2023-04-08T07:39:42;11.30;99.90
30825;DHT22;17550;45.486;12.222;2023-04-08T07:42:08;11.40;99.90
30825;DHT22;17550;45.486;12.222;2023-04-08T07:44:34;11.50;99.90
30825;DHT22;17550;45.486;12.222;2023-04-08T07:47:00;11.70;99.90
30825;DHT22;17550;45.486;12.222;2023-04-08T07:49:25;11.80;99.90
30825;DHT22;17550;45.486;12.222;2023-04-08T07:51:51;12.20;99.90
30825;DHT22;17550;45.486;12.222;2023-04-08T07:54:20;12.30;99.90
30825;DHT22;17550;45.486;12.222;2023-04-08T07:56:45;12.40;99.90
30825;DHT22;17550;45.486;12.222;2023-04-08T07:59:11;12.50;99.90
30825;DHT22;17550;45.486;12.222;2023-04-08T08:01:37;12.80;99.90
30825;DHT22;17550;45.486;12.222;2023-04-08T08:04:03;13.00;99.90
30825;DHT22;17550;45.486;12.222;2023-04-08T08:06:29;13.00;99.90
30825;DHT22;17550;45.486;12.222;2023-04-08T08:08:58;13.10;99.90
30825;DHT22;17550;45.486;12.222;2023-04-08T08:11:23;13.40;99.80
30825;DHT22;17550;45.486;12.222;2023-04-08T08:13:51;13.40;99.30
30825;DHT22;17550;45.486;12.222;2023-04-08T08:16:17;13.50;99.00
30825;DHT22;17550;45.486;12.222;2023-04-08T08:18:43;13.60;98.50
30825;DHT22;17550;45.486;12.222;2023-04-08T08:21:08;13.80;98.60
30825;DHT22;17550;45.486;12.222;2023-04-08T08:23:34;13.80;96.40
30825;DHT22;17550;45.486;12.222;2023-04-08T08:26:06;13.80;96.90
30825;DHT22;17550;45.486;12.222;2023-04-08T08:28:34;14.00;97.70
30825;DHT22;17550;45.486;12.222;2023-04-08T08:31:00;14.20;97.10
30825;DHT22;17550;45.486;12.222;2023-04-08T08:33:26;14.40;94.50
30825;DHT22;17550;45.486;12.222;2023-04-08T08:35:52;14.30;93.90
30825;DHT22;17550;45.486;12.222;2023-04-08T08:38:18;14.20;94.00
30825;DHT22;17550;45.486;12.222;2023-04-08T08:40:44;14.10;92.70
30825;DHT22;17550;45.486;12.222;2023-04-08T08:43:10;14.10;93.90
30825;DHT22;17550;45.486;12.222;2023-04-08T08:45:43;14.30;95.40
30825;DHT22;17550;45.486;12.222;2023-04-08T08:48:08;14.60;94.90
30825;DHT22;17550;45.486;12.222;2023-04-08T08:50:34;14.70;92.30
30825;DHT22;17550;45.486;12.222;2023-04-08T08:53:01;14.60;92.90
30825;DHT22;17550;45.486;12.222;2023-04-08T08:55:29;14.70;93.20
30825;DHT22;17550;45.486;12.222;2023-04-08T08:57:56;14.90;92.70
30825;DHT22;17550;45.486;12.222;2023-04-08T09:00:39;15.20;93.00
30825;DHT22;17550;45.486;12.222;2023-04-08T09:03:26;15.10;92.00
30825;DHT22;17550;45.486;12.222;2023-04-08T09:05:53;15.10;92.00
30825;DHT22;17550;45.486;12.222;2023-04-08T09:08:37;15.30;91.40
30825;DHT22;17550;45.486;12.222;2023-04-08T09:13:37;15.60;91.20
30825;DHT22;17550;45.486;12.222;2023-04-08T09:16:05;15.40;91.10
30825;DHT22;17550;45.486;12.222;2023-04-08T09:18:32;15.40;90.20
30825;DHT22;17550;45.486;12.222;2023-04-08T09:21:02;15.50;90.80
30825;DHT22;17550;45.486;12.222;2023-04-08T09:26:07;15.60;90.70
30825;DHT22;17550;45.486;12.222;2023-04-08T09:28:33;16.00;90.00
30825;DHT22;17550;45.486;12.222;2023-04-08T09:30:59;16.20;90.40
30825;DHT22;17550;45.486;12.222;2023-04-08T09:33:31;16.60;90.40
30825;DHT22;17550;45.486;12.222;2023-04-08T09:35:57;16.80;90.90
30825;DHT22;17550;45.486;12.222;2023-04-08T09:38:23;16.50;91.10
30825;DHT22;17550;45.486;12.222;2023-04-08T09:40:50;16.40;91.30
30825;DHT22;17550;45.486;12.222;2023-04-08T09:43:19;16.40;91.30
30825;DHT22;17550;45.486;12.222;2023-04-08T09:45:47;16.40;91.00
30825;DHT22;17550;45.486;12.222;2023-04-08T09:48:17;16.40;91.00
30825;DHT22;17550;45.486;12.222;2023-04-08T09:50:49;16.20;91.60
30825;DHT22;17550;45.486;12.222;2023-04-08T09:53:19;15.80;92.20
30825;DHT22;17550;45.486;12.222;2023-04-08T09:55:54;15.60;92.50
30825;DHT22;17550;45.486;12.222;2023-04-08T09:58:37;15.70;92.50
30825;DHT22;17550;45.486;12.222;2023-04-08T10:01:04;16.00;91.80
30825;DHT22;17550;45.486;12.222;2023-04-08T10:03:39;15.90;91.70
30825;DHT22;17550;45.486;12.222;2023-04-08T10:06:06;15.90;91.30
30825;DHT22;17550;45.486;12.222;2023-04-08T10:08:33;16.20;91.60
30825;DHT22;17550;45.486;12.222;2023-04-08T10:10:59;16.70;90.90
30825;DHT22;17550;45.486;12.222;2023-04-08T10:13:26;16.70;90.50
30825;DHT22;17550;45.486;12.222;2023-04-08T10:18:47;16.70;90.30
30825;DHT22;17550;45.486;12.222;2023-04-08T10:24:05;17.20;90.90
30825;DHT22;17550;45.486;12.222;2023-04-08T10:26:38;17.20;90.90
30825;DHT22;17550;45.486;12.222;2023-04-08T10:31:51;17.10;88.80
30825;DHT22;17550;45.486;12.222;2023-04-08T10:34:18;17.20;89.90
30825;DHT22;17550;45.486;12.222;2023-04-08T10:36:44;17.40;89.40
30825;DHT22;17550;45.486;12.222;2023-04-08T10:39:12;17.40;89.20
30825;DHT22;17550;45.486;12.222;2023-04-08T10:41:45;17.40;88.70
30825;DHT22;17550;45.486;12.222;2023-04-08T10:44:15;17.40;88.30
30825;DHT22;17550;45.486;12.222;2023-04-08T10:46:41;17.80;89.30
30825;DHT22;17550;45.486;12.222;2023-04-08T10:49:07;18.00;87.20
30825;DHT22;17550;45.486;12.222;2023-04-08T10:51:33;17.90;85.00
30825;DHT22;17550;45.486;12.222;2023-04-08T10:54:09;17.70;86.20
30825;DHT22;17550;45.486;12.222;2023-04-08T10:56:36;17.40;85.40
30825;DHT22;17550;45.486;12.222;2023-04-08T10:59:08;17.60;84.40
30825;DHT22;17550;45.486;12.222;2023-04-08T11:01:39;17.80;81.70
30825;DHT22;17550;45.486;12.222;2023-04-08T11:04:15;17.90;83.90
30825;DHT22;17550;45.486;12.222;2023-04-08T11:06:44;17.60;85.30
30825;DHT22;17550;45.486;12.222;2023-04-08T11:09:12;17.70;84.90
30825;DHT22;17550;45.486;12.222;2023-04-08T11:11:38;17.50;86.40
30825;DHT22;17550;45.486;12.222;2023-04-08T11:14:05;17.50;86.70
30825;DHT22;17550;45.486;12.222;2023-04-08T11:16:33;17.70;84.00
30825;DHT22;17550;45.486;12.222;2023-04-08T11:19:01;17.90;80.80
30825;DHT22;17550;45.486;12.222;2023-04-08T11:21:27;17.70;75.30
30825;DHT22;17550;45.486;12.222;2023-04-08T11:23:54;17.40;80.70
30825;DHT22;17550;45.486;12.222;2023-04-08T11:26:21;17.10;83.70
30825;DHT22;17550;45.486;12.222;2023-04-08T11:28:46;17.10;85.90
30825;DHT22;17550;45.486;12.222;2023-04-08T11:31:17;17.00;84.90
30825;DHT22;17550;45.486;12.222;2023-04-08T11:33:52;16.90;84.30
30825;DHT22;17550;45.486;12.222;2023-04-08T11:36:18;16.70;81.90
30825;DHT22;17550;45.486;12.222;2023-04-08T11:38:46;16.50;82.40
30825;DHT22;17550;45.486;12.222;2023-04-08T11:41:12;16.50;84.00
30825;DHT22;17550;45.486;12.222;2023-04-08T11:43:38;16.50;79.90
30825;DHT22;17550;45.486;12.222;2023-04-08T11:46:09;16.40;79.10
30825;DHT22;17550;45.486;12.222;2023-04-08T11:48:35;16.50;83.90
30825;DHT22;17550;45.486;12.222;2023-04-08T11:51:02;16.50;83.70
30825;DHT22;17550;45.486;12.222;2023-04-08T11:53:31;16.50;83.90
30825;DHT22;17550;45.486;12.222;2023-04-08T11:55:57;16.50;84.90
30825;DHT22;17550;45.486;12.222;2023-04-08T11:58:23;16.50;83.30
30825;DHT22;17550;45.486;12.222;2023-04-08T12:00:48;16.70;82.60
30825;DHT22;17550;45.486;12.222;2023-04-08T12:03:15;16.90;81.40
30825;DHT22;17550;45.486;12.222;2023-04-08T12:05:40;16.90;81.40
30825;DHT22;17550;45.486;12.222;2023-04-08T12:08:07;16.90;83.10
30825;DHT22;17550;45.486;12.222;2023-04-08T12:10:32;17.00;84.60
30825;DHT22;17550;45.486;12.222;2023-04-08T12:12:58;17.40;86.80
30825;DHT22;17550;45.486;12.222;2023-04-08T12:15:24;17.70;86.40
30825;DHT22;17550;45.486;12.222;2023-04-08T12:17:49;18.10;85.60
30825;DHT22;17550;45.486;12.222;2023-04-08T12:20:15;18.40;83.80
30825;DHT22;17550;45.486;12.222;2023-04-08T12:22:41;18.60;82.40
30825;DHT22;17550;45.486;12.222;2023-04-08T12:25:07;18.60;82.70
30825;DHT22;17550;45.486;12.222;2023-04-08T12:27:33;18.30;84.10
30825;DHT22;17550;45.486;12.222;2023-04-08T12:29:59;18.30;83.00
30825;DHT22;17550;45.486;12.222;2023-04-08T12:32:25;18.30;80.10
30825;DHT22;17550;45.486;12.222;2023-04-08T12:34:51;18.00;79.10
30825;DHT22;17550;45.486;12.222;2023-04-08T12:37:17;17.80;79.30
30825;DHT22;17550;45.486;12.222;2023-04-08T12:39:42;17.90;79.70
30825;DHT22;17550;45.486;12.222;2023-04-08T12:42:08;18.00;81.80
30825;DHT22;17550;45.486;12.222;2023-04-08T12:44:34;17.80;84.00
30825;DHT22;17550;45.486;12.222;2023-04-08T12:47:00;17.40;81.80
30825;DHT22;17550;45.486;12.222;2023-04-08T12:49:25;17.30;82.90
30825;DHT22;17550;45.486;12.222;2023-04-08T12:51:51;17.20;81.50
30825;DHT22;17550;45.486;12.222;2023-04-08T12:54:18;17.20;79.60
30825;DHT22;17550;45.486;12.222;2023-04-08T12:56:44;17.40;80.30
30825;DHT22;17550;45.486;12.222;2023-04-08T12:59:10;17.50;79.40
30825;DHT22;17550;45.486;12.222;2023-04-08T13:01:35;17.40;81.90
30825;DHT22;17550;45.486;12.222;2023-04-08T13:04:01;17.30;83.20
30825;DHT22;17550;45.486;12.222;2023-04-08T13:06:27;17.40;81.20
30825;DHT22;17550;45.486;12.222;2023-04-08T13:08:53;17.70;81.20
30825;DHT22;17550;45.486;12.222;2023-04-08T13:11:19;17.40;83.90
30825;DHT22;17550;45.486;12.222;2023-04-08T13:13:45;17.30;84.90
30825;DHT22;17550;45.486;12.222;2023-04-08T13:16:12;17.20;86.40
30825;DHT22;17550;45.486;12.222;2023-04-08T13:18:41;17.40;84.20
30825;DHT22;17550;45.486;12.222;2023-04-08T13:21:07;17.50;81.40
30825;DHT22;17550;45.486;12.222;2023-04-08T13:23:33;17.40;79.00
30825;DHT22;17550;45.486;12.222;2023-04-08T13:25:59;17.30;78.70
30825;DHT22;17550;45.486;12.222;2023-04-08T13:28:25;17.30;73.20
30825;DHT22;17550;45.486;12.222;2023-04-08T13:30:51;17.70;76.30
30825;DHT22;17550;45.486;12.222;2023-04-08T13:33:18;18.20;77.30
30825;DHT22;17550;45.486;12.222;2023-04-08T13:35:43;17.90;78.20
30825;DHT22;17550;45.486;12.222;2023-04-08T13:38:09;17.70;77.90
30825;DHT22;17550;45.486;12.222;2023-04-08T13:40:35;17.50;80.80
30825;DHT22;17550;45.486;12.222;2023-04-08T13:43:01;17.60;81.60
30825;DHT22;17550;45.486;12.222;2023-04-08T13:45:27;17.90;80.40
30825;DHT22;17550;45.486;12.222;2023-04-08T13:47:53;18.10;78.80
30825;DHT22;17550;45.486;12.222;2023-04-08T13:50:19;18.20;80.20
30825;DHT22;17550;45.486;12.222;2023-04-08T13:52:44;18.30;79.60
30825;DHT22;17550;45.486;12.222;2023-04-08T13:55:10;18.50;78.60
30825;DHT22;17550;45.486;12.222;2023-04-08T13:57:36;18.70;77.80
30825;DHT22;17550;45.486;12.222;2023-04-08T14:00:02;18.60;77.90
30825;DHT22;17550;45.486;12.222;2023-04-08T14:02:28;18.20;77.00
30825;DHT22;17550;45.486;12.222;2023-04-08T14:04:54;17.90;72.60
30825;DHT22;17550;45.486;12.222;2023-04-08T14:07:19;17.60;73.80
30825;DHT22;17550;45.486;12.222;2023-04-08T14:09:45;17.40;73.60
30825;DHT22;17550;45.486;12.222;2023-04-08T14:12:11;17.30;73.10
30825;DHT22;17550;45.486;12.222;2023-04-08T14:14:36;17.40;78.40
30825;DHT22;17550;45.486;12.222;2023-04-08T14:17:02;17.40;77.20
30825;DHT22;17550;45.486;12.222;2023-04-08T14:19:28;17.60;76.70
30825;DHT22;17550;45.486;12.222;2023-04-08T14:21:54;17.50;75.80
30825;DHT22;17550;45.486;12.222;2023-04-08T14:24:20;17.30;78.30
30825;DHT22;17550;45.486;12.222;2023-04-08T14:26:46;17.30;79.10
30825;DHT22;17550;45.486;12.222;2023-04-08T14:29:12;17.40;79.30
30825;DHT22;17550;45.486;12.222;2023-04-08T14:31:37;17.60;78.80
30825;DHT22;17550;45.486;12.222;2023-04-08T14:34:04;17.20;80.30
30825;DHT22;17550;45.486;12.222;2023-04-08T14:36:30;17.10;82.30
30825;DHT22;17550;45.486;12.222;2023-04-08T14:38:56;17.30;83.50
30825;DHT22;17550;45.486;12.222;2023-04-08T14:41:22;17.40;84.10
30825;DHT22;17550;45.486;12.222;2023-04-08T14:43:48;17.40;83.70
30825;DHT22;17550;45.486;12.222;2023-04-08T14:46:14;17.40;82.30
30825;DHT22;17550;45.486;12.222;2023-04-08T14:48:40;17.50;82.70
30825;DHT22;17550;45.486;12.222;2023-04-08T14:51:06;17.20;81.40
30825;DHT22;17550;45.486;12.222;2023-04-08T14:53:32;17.00;79.10
30825;DHT22;17550;45.486;12.222;2023-04-08T14:55:58;16.80;79.90
30825;DHT22;17550;45.486;12.222;2023-04-08T14:58:24;16.70;80.40
30825;DHT22;17550;45.486;12.222;2023-04-08T15:00:50;16.70;80.40
30825;DHT22;17550;45.486;12.222;2023-04-08T15:03:16;16.70;78.50
30825;DHT22;17550;45.486;12.222;2023-04-08T15:05:43;16.50;79.30
30825;DHT22;17550;45.486;12.222;2023-04-08T15:08:10;16.50;80.00
30825;DHT22;17550;45.486;12.222;2023-04-08T15:10:36;16.60;79.50
30825;DHT22;17550;45.486;12.222;2023-04-08T15:13:01;16.60;78.50
30825;DHT22;17550;45.486;12.222;2023-04-08T15:15:27;16.50;78.60
30825;DHT22;17550;45.486;12.222;2023-04-08T15:17:53;16.40;80.00
30825;DHT22;17550;45.486;12.222;2023-04-08T15:20:19;16.40;78.40
30825;DHT22;17550;45.486;12.222;2023-04-08T15:22:45;16.30;78.60
30825;DHT22;17550;45.486;12.222;2023-04-08T15:25:11;16.30;77.70
30825;DHT22;17550;45.486;12.222;2023-04-08T15:27:38;16.20;78.80
30825;DHT22;17550;45.486;12.222;2023-04-08T15:30:04;16.20;77.70
30825;DHT22;17550;45.486;12.222;2023-04-08T15:32:31;16.10;78.80
30825;DHT22;17550;45.486;12.222;2023-04-08T15:34:57;16.00;80.20
30825;DHT22;17550;45.486;12.222;2023-04-08T15:37:23;16.00;81.40
30825;DHT22;17550;45.486;12.222;2023-04-08T15:39:50;15.90;82.30
30825;DHT22;17550;45.486;12.222;2023-04-08T15:42:18;15.80;81.40
30825;DHT22;17550;45.486;12.222;2023-04-08T15:44:44;15.70;82.20